Athelstane, Wisconsin
Current Conditions -  °F | °C
As of 9:54 AM on Saturday 25 Oct 2014 (Local Time) from KIMT Reporting Station
Clear Clear  
Wind Chill: 54°   Ceiling: Unl
Heat Index: 54°   Visibility: 10mi
Dew Point: 33°   Wind: 15mph
Humidity: 45%   Direction: 300°WNW
Pressure: 29.75"   Gusts: 31mph
Location:  45.42°N, 88.1°W
Report Text: KIMT 251454Z AUTO 30013G27KT 10SM CLR 12/01 A2975 RMK AO2 PK WND 29029/1424 SLP080 T01220006 51006
Loading
Personal Weather Stations






























Interactive Weather Map
Tropical Storm Tracking
New forecast layout! Learn more

10-Day Weather Forecast

Advertisements
Track Severe Weather on mobile